LIEO/OLB METAR and TAF weather

Enter ICAO airport designator
Station Type Date Time Source
LIEO METAR 2019/10/20 20:50 UTC NOAA

LIEO 202050Z 23003KT 9999 FEW030 19/18 Q1016


Station Type Date Time Source
LIEO Decoded METAR 2019/10/20 20:50 UTC NOAA

Olbia / Costa Smeralda, Italy (LIEO) 40-54N 009-31E 13M
Oct 20, 2019 - 04:50 PM EDT / 2019.10.20 2050 UTC
Wind: from the SW (230 degrees) at 3 MPH (3 KT):0
Visibility: greater than 7 mile(s):0
Sky conditions: mostly clear
Temperature: 66 F (19 C)
Dew Point: 64 F (18 C)
Relative Humidity: 93%
Pressure (altimeter): 30.00 in. Hg (1016 hPa)
ob: LIEO 202050Z 23003KT 9999 FEW030 19/18 Q1016
cycle: 21

Station Type Date Time Source
LIEO TAF 2019/10/20 18:21 UTC NOAA

TAF LIEO 201700Z 2018/2118 VRB05KT 9999 FEW025
BECMG 2108/2110 12012KT

Example: see airport list